Terminal Aerodrome Forecast
Issued by NWS

Home | Current Version | Previous Version | Text Only | Print | Product List | Glossary On
Versions: 1 2 3 4 5 6 7 8 9 10 11 12 13 14 15 16 17 18 19 20
000
FTUS46 KSEW 200600 AAA
TAFBLI
TAF AMD
KBLI 200627Z 2006/2106 00000KT 1/2SM FG VV002
      TEMPO 2006/2010 4SM BR FEW003 SCT040
     FM201600 00000KT 4SM BR FEW003
     FM201700 02005KT P6SM SKC
     FM202000 31006KT P6SM SKC=

USA.gov is the U.S. government's official web portal to all federal, state and local government web resources and services.